sensor_id;sensor_type;location;lat;lon;timestamp;P1;durP1;ratioP1;P2;durP2;ratioP2
8074;SDS011;4080;42.676;23.372;2022-09-09T00:00:19;10.40;;;9.40;;
8074;SDS011;4080;42.676;23.372;2022-09-09T00:02:49;11.43;;;9.83;;
8074;SDS011;4080;42.676;23.372;2022-09-09T00:05:27;11.17;;;9.93;;
8074;SDS011;4080;42.676;23.372;2022-09-09T00:08:00;11.77;;;10.13;;
8074;SDS011;4080;42.676;23.372;2022-09-09T00:10:31;12.37;;;10.33;;
8074;SDS011;4080;42.676;23.372;2022-09-09T00:13:02;13.80;;;10.90;;
8074;SDS011;4080;42.676;23.372;2022-09-09T00:15:41;12.83;;;10.60;;
8074;SDS011;4080;42.676;23.372;2022-09-09T00:18:16;12.83;;;10.90;;
8074;SDS011;4080;42.676;23.372;2022-09-09T00:20:49;14.37;;;11.17;;
8074;SDS011;4080;42.676;23.372;2022-09-09T00:23:24;13.10;;;11.53;;
8074;SDS011;4080;42.676;23.372;2022-09-09T00:25:55;12.27;;;11.17;;
8074;SDS011;4080;42.676;23.372;2022-09-09T00:28:29;12.50;;;11.07;;
8074;SDS011;4080;42.676;23.372;2022-09-09T00:31:01;14.60;;;11.80;;
8074;SDS011;4080;42.676;23.372;2022-09-09T00:33:38;13.07;;;11.67;;
8074;SDS011;4080;42.676;23.372;2022-09-09T00:36:07;15.97;;;11.83;;
8074;SDS011;4080;42.676;23.372;2022-09-09T00:38:42;13.60;;;11.33;;
8074;SDS011;4080;42.676;23.372;2022-09-09T00:41:13;16.17;;;12.73;;
8074;SDS011;4080;42.676;23.372;2022-09-09T00:43:47;13.07;;;11.40;;
8074;SDS011;4080;42.676;23.372;2022-09-09T00:46:41;11.47;;;10.37;;
8074;SDS011;4080;42.676;23.372;2022-09-09T00:49:23;12.63;;;10.07;;
8074;SDS011;4080;42.676;23.372;2022-09-09T00:52:01;10.30;;;9.30;;
8074;SDS011;4080;42.676;23.372;2022-09-09T00:54:45;9.93;;;8.93;;
8074;SDS011;4080;42.676;23.372;2022-09-09T00:57:25;15.13;;;9.00;;
8074;SDS011;4080;42.676;23.372;2022-09-09T00:59:56;9.73;;;8.83;;
8074;SDS011;4080;42.676;23.372;2022-09-09T01:02:46;10.03;;;9.03;;
8074;SDS011;4080;42.676;23.372;2022-09-09T01:05:23;11.83;;;9.10;;
8074;SDS011;4080;42.676;23.372;2022-09-09T01:08:00;9.60;;;8.40;;
8074;SDS011;4080;42.676;23.372;2022-09-09T01:10:30;10.33;;;9.33;;
8074;SDS011;4080;42.676;23.372;2022-09-09T01:13:08;9.27;;;8.47;;
8074;SDS011;4080;42.676;23.372;2022-09-09T01:15:41;9.70;;;8.73;;
8074;SDS011;4080;42.676;23.372;2022-09-09T01:18:13;9.17;;;8.37;;
8074;SDS011;4080;42.676;23.372;2022-09-09T01:20:45;10.13;;;9.17;;
8074;SDS011;4080;42.676;23.372;2022-09-09T01:23:21;9.73;;;8.90;;
8074;SDS011;4080;42.676;23.372;2022-09-09T01:26:10;11.00;;;8.90;;
8074;SDS011;4080;42.676;23.372;2022-09-09T01:28:42;9.63;;;8.80;;
8074;SDS011;4080;42.676;23.372;2022-09-09T01:31:13;10.37;;;9.23;;
8074;SDS011;4080;42.676;23.372;2022-09-09T01:33:43;9.97;;;8.97;;
8074;SDS011;4080;42.676;23.372;2022-09-09T01:36:10;10.43;;;8.90;;
8074;SDS011;4080;42.676;23.372;2022-09-09T01:38:43;9.73;;;8.83;;
8074;SDS011;4080;42.676;23.372;2022-09-09T01:41:11;9.63;;;8.77;;
8074;SDS011;4080;42.676;23.372;2022-09-09T01:43:38;10.23;;;9.20;;
8074;SDS011;4080;42.676;23.372;2022-09-09T01:46:05;10.27;;;9.07;;
8074;SDS011;4080;42.676;23.372;2022-09-09T01:48:32;9.93;;;9.03;;
8074;SDS011;4080;42.676;23.372;2022-09-09T01:50:59;9.77;;;8.87;;
8074;SDS011;4080;42.676;23.372;2022-09-09T01:53:26;11.33;;;9.40;;
8074;SDS011;4080;42.676;23.372;2022-09-09T01:55:56;10.23;;;9.23;;
8074;SDS011;4080;42.676;23.372;2022-09-09T01:58:34;11.83;;;9.80;;
8074;SDS011;4080;42.676;23.372;2022-09-09T02:01:15;10.03;;;9.10;;
8074;SDS011;4080;42.676;23.372;2022-09-09T02:03:51;10.40;;;9.30;;
8074;SDS011;4080;42.676;23.372;2022-09-09T02:06:24;10.50;;;9.43;;
8074;SDS011;4080;42.676;23.372;2022-09-09T02:08:55;11.73;;;8.93;;
8074;SDS011;4080;42.676;23.372;2022-09-09T02:11:23;10.90;;;9.90;;
8074;SDS011;4080;42.676;23.372;2022-09-09T02:13:54;10.10;;;9.10;;
8074;SDS011;4080;42.676;23.372;2022-09-09T02:16:24;9.83;;;8.93;;
8074;SDS011;4080;42.676;23.372;2022-09-09T02:18:55;11.63;;;9.13;;
8074;SDS011;4080;42.676;23.372;2022-09-09T02:21:27;10.80;;;9.80;;
8074;SDS011;4080;42.676;23.372;2022-09-09T02:23:56;11.37;;;10.17;;
8074;SDS011;4080;42.676;23.372;2022-09-09T02:26:29;10.37;;;9.17;;
8074;SDS011;4080;42.676;23.372;2022-09-09T02:29:01;11.23;;;9.70;;
8074;SDS011;4080;42.676;23.372;2022-09-09T02:31:31;10.63;;;9.63;;
8074;SDS011;4080;42.676;23.372;2022-09-09T02:34:01;10.70;;;9.70;;
8074;SDS011;4080;42.676;23.372;2022-09-09T02:36:30;10.87;;;9.77;;
8074;SDS011;4080;42.676;23.372;2022-09-09T02:39:00;10.67;;;9.67;;
8074;SDS011;4080;42.676;23.372;2022-09-09T02:41:29;10.40;;;9.40;;
8074;SDS011;4080;42.676;23.372;2022-09-09T02:44:00;10.80;;;9.80;;
8074;SDS011;4080;42.676;23.372;2022-09-09T02:46:32;10.70;;;9.70;;
8074;SDS011;4080;42.676;23.372;2022-09-09T02:49:11;13.37;;;11.80;;
8074;SDS011;4080;42.676;23.372;2022-09-09T02:51:49;11.77;;;10.00;;
8074;SDS011;4080;42.676;23.372;2022-09-09T02:54:24;10.70;;;9.70;;
8074;SDS011;4080;42.676;23.372;2022-09-09T02:56:56;10.33;;;9.23;;
8074;SDS011;4080;42.676;23.372;2022-09-09T02:59:29;10.97;;;10.07;;
8074;SDS011;4080;42.676;23.372;2022-09-09T03:01:57;10.67;;;9.80;;
8074;SDS011;4080;42.676;23.372;2022-09-09T03:04:23;13.47;;;10.57;;
8074;SDS011;4080;42.676;23.372;2022-09-09T03:06:50;10.37;;;9.47;;
8074;SDS011;4080;42.676;23.372;2022-09-09T03:09:17;17.70;;;10.53;;
8074;SDS011;4080;42.676;23.372;2022-09-09T03:11:44;11.77;;;10.10;;
8074;SDS011;4080;42.676;23.372;2022-09-09T03:14:10;12.17;;;10.77;;
8074;SDS011;4080;42.676;23.372;2022-09-09T03:16:38;12.53;;;11.33;;
8074;SDS011;4080;42.676;23.372;2022-09-09T03:19:05;11.37;;;10.27;;
8074;SDS011;4080;42.676;23.372;2022-09-09T03:21:32;12.53;;;11.23;;
8074;SDS011;4080;42.676;23.372;2022-09-09T03:23:59;12.43;;;11.23;;
8074;SDS011;4080;42.676;23.372;2022-09-09T03:26:28;13.57;;;10.47;;
8074;SDS011;4080;42.676;23.372;2022-09-09T03:28:55;13.10;;;10.90;;
8074;SDS011;4080;42.676;23.372;2022-09-09T03:31:22;14.10;;;11.90;;
8074;SDS011;4080;42.676;23.372;2022-09-09T03:33:50;14.07;;;10.40;;
8074;SDS011;4080;42.676;23.372;2022-09-09T03:36:17;19.77;;;11.57;;
8074;SDS011;4080;42.676;23.372;2022-09-09T03:38:44;14.40;;;12.07;;
8074;SDS011;4080;42.676;23.372;2022-09-09T03:41:10;13.00;;;11.77;;
8074;SDS011;4080;42.676;23.372;2022-09-09T03:43:37;13.63;;;12.33;;
8074;SDS011;4080;42.676;23.372;2022-09-09T03:46:04;12.87;;;11.57;;
8074;SDS011;4080;42.676;23.372;2022-09-09T03:48:31;15.63;;;13.73;;
8074;SDS011;4080;42.676;23.372;2022-09-09T03:51:00;16.03;;;13.00;;
8074;SDS011;4080;42.676;23.372;2022-09-09T03:53:28;12.60;;;11.40;;
8074;SDS011;4080;42.676;23.372;2022-09-09T03:55:55;14.03;;;11.87;;
8074;SDS011;4080;42.676;23.372;2022-09-09T03:58:24;15.73;;;12.07;;
8074;SDS011;4080;42.676;23.372;2022-09-09T04:00:53;18.23;;;12.70;;
8074;SDS011;4080;42.676;23.372;2022-09-09T04:03:20;13.50;;;12.20;;
8074;SDS011;4080;42.676;23.372;2022-09-09T04:05:49;12.50;;;11.30;;
8074;SDS011;4080;42.676;23.372;2022-09-09T04:08:18;15.00;;;11.33;;
8074;SDS011;4080;42.676;23.372;2022-09-09T04:10:44;15.97;;;11.30;;
8074;SDS011;4080;42.676;23.372;2022-09-09T04:13:12;12.80;;;9.90;;
8074;SDS011;4080;42.676;23.372;2022-09-09T04:15:42;13.07;;;10.53;;
8074;SDS011;4080;42.676;23.372;2022-09-09T04:18:10;12.67;;;10.93;;
8074;SDS011;4080;42.676;23.372;2022-09-09T04:20:37;10.90;;;9.80;;
8074;SDS011;4080;42.676;23.372;2022-09-09T04:23:04;14.87;;;10.67;;
8074;SDS011;4080;42.676;23.372;2022-09-09T04:25:32;16.60;;;13.23;;
8074;SDS011;4080;42.676;23.372;2022-09-09T04:27:59;13.10;;;11.90;;
8074;SDS011;4080;42.676;23.372;2022-09-09T04:30:27;16.83;;;12.07;;
8074;SDS011;4080;42.676;23.372;2022-09-09T04:32:54;16.87;;;11.10;;
8074;SDS011;4080;42.676;23.372;2022-09-09T04:35:21;17.10;;;11.93;;
8074;SDS011;4080;42.676;23.372;2022-09-09T04:37:48;13.80;;;10.27;;
8074;SDS011;4080;42.676;23.372;2022-09-09T04:40:15;11.87;;;10.73;;
8074;SDS011;4080;42.676;23.372;2022-09-09T04:42:43;12.77;;;10.10;;
8074;SDS011;4080;42.676;23.372;2022-09-09T04:45:10;13.23;;;10.37;;
8074;SDS011;4080;42.676;23.372;2022-09-09T04:47:38;12.00;;;10.73;;
8074;SDS011;4080;42.676;23.372;2022-09-09T04:50:06;15.07;;;10.03;;
8074;SDS011;4080;42.676;23.372;2022-09-09T04:52:33;12.40;;;10.33;;
8074;SDS011;4080;42.676;23.372;2022-09-09T04:55:00;14.43;;;11.27;;
8074;SDS011;4080;42.676;23.372;2022-09-09T04:57:27;16.90;;;10.73;;
8074;SDS011;4080;42.676;23.372;2022-09-09T04:59:58;12.07;;;10.77;;
8074;SDS011;4080;42.676;23.372;2022-09-09T05:02:25;23.50;;;11.33;;
8074;SDS011;4080;42.676;23.372;2022-09-09T05:04:51;16.30;;;11.50;;
8074;SDS011;4080;42.676;23.372;2022-09-09T05:07:19;13.43;;;10.37;;
8074;SDS011;4080;42.676;23.372;2022-09-09T05:09:45;13.13;;;10.50;;
8074;SDS011;4080;42.676;23.372;2022-09-09T05:12:14;17.83;;;10.97;;
8074;SDS011;4080;42.676;23.372;2022-09-09T05:14:41;11.30;;;9.90;;
8074;SDS011;4080;42.676;23.372;2022-09-09T05:17:10;10.27;;;9.10;;
8074;SDS011;4080;42.676;23.372;2022-09-09T05:19:38;10.70;;;9.60;;
8074;SDS011;4080;42.676;23.372;2022-09-09T05:22:05;11.97;;;8.97;;
8074;SDS011;4080;42.676;23.372;2022-09-09T05:24:32;11.63;;;8.57;;
8074;SDS011;4080;42.676;23.372;2022-09-09T05:26:59;14.20;;;8.87;;
8074;SDS011;4080;42.676;23.372;2022-09-09T05:29:27;9.90;;;8.90;;
8074;SDS011;4080;42.676;23.372;2022-09-09T05:31:54;14.03;;;8.73;;
8074;SDS011;4080;42.676;23.372;2022-09-09T05:34:22;10.07;;;8.43;;
8074;SDS011;4080;42.676;23.372;2022-09-09T05:36:49;14.40;;;8.50;;
8074;SDS011;4080;42.676;23.372;2022-09-09T05:39:17;10.77;;;8.30;;
8074;SDS011;4080;42.676;23.372;2022-09-09T05:41:43;13.00;;;8.37;;
8074;SDS011;4080;42.676;23.372;2022-09-09T05:44:10;11.10;;;8.60;;
8074;SDS011;4080;42.676;23.372;2022-09-09T05:46:38;14.87;;;8.20;;
8074;SDS011;4080;42.676;23.372;2022-09-09T05:49:05;10.43;;;9.33;;
8074;SDS011;4080;42.676;23.372;2022-09-09T05:51:34;11.93;;;9.20;;
8074;SDS011;4080;42.676;23.372;2022-09-09T05:54:02;14.57;;;10.10;;
8074;SDS011;4080;42.676;23.372;2022-09-09T05:56:29;12.17;;;9.07;;
8074;SDS011;4080;42.676;23.372;2022-09-09T05:58:57;10.33;;;9.27;;
8074;SDS011;4080;42.676;23.372;2022-09-09T06:01:25;10.40;;;9.00;;
8074;SDS011;4080;42.676;23.372;2022-09-09T06:03:53;9.33;;;7.40;;
8074;SDS011;4080;42.676;23.372;2022-09-09T06:06:23;7.83;;;6.90;;
8074;SDS011;4080;42.676;23.372;2022-09-09T06:08:53;9.43;;;7.07;;
8074;SDS011;4080;42.676;23.372;2022-09-09T06:11:23;9.30;;;6.87;;
8074;SDS011;4080;42.676;23.372;2022-09-09T06:13:51;11.40;;;7.80;;
8074;SDS011;4080;42.676;23.372;2022-09-09T06:16:20;13.70;;;7.17;;
8074;SDS011;4080;42.676;23.372;2022-09-09T06:18:49;7.33;;;6.10;;
8074;SDS011;4080;42.676;23.372;2022-09-09T06:21:16;9.93;;;6.60;;
8074;SDS011;4080;42.676;23.372;2022-09-09T06:23:45;6.93;;;5.80;;
8074;SDS011;4080;42.676;23.372;2022-09-09T06:26:15;9.30;;;6.00;;
8074;SDS011;4080;42.676;23.372;2022-09-09T06:28:44;7.73;;;6.00;;
8074;SDS011;4080;42.676;23.372;2022-09-09T06:31:13;8.47;;;6.27;;
8074;SDS011;4080;42.676;23.372;2022-09-09T06:33:42;8.70;;;5.63;;
8074;SDS011;4080;42.676;23.372;2022-09-09T06:36:11;6.43;;;5.80;;
8074;SDS011;4080;42.676;23.372;2022-09-09T06:38:40;9.10;;;5.90;;
8074;SDS011;4080;42.676;23.372;2022-09-09T06:41:07;7.40;;;5.67;;
8074;SDS011;4080;42.676;23.372;2022-09-09T06:43:36;6.70;;;5.60;;
8074;SDS011;4080;42.676;23.372;2022-09-09T06:46:04;5.90;;;5.30;;
8074;SDS011;4080;42.676;23.372;2022-09-09T06:48:34;7.77;;;5.53;;
8074;SDS011;4080;42.676;23.372;2022-09-09T06:51:02;7.80;;;6.17;;
8074;SDS011;4080;42.676;23.372;2022-09-09T06:53:31;6.83;;;6.10;;
8074;SDS011;4080;42.676;23.372;2022-09-09T06:55:59;6.60;;;6.00;;
8074;SDS011;4080;42.676;23.372;2022-09-09T06:58:27;9.50;;;7.43;;
8074;SDS011;4080;42.676;23.372;2022-09-09T07:01:02;8.80;;;6.10;;
8074;SDS011;4080;42.676;23.372;2022-09-09T07:03:30;10.83;;;5.57;;
8074;SDS011;4080;42.676;23.372;2022-09-09T07:05:57;8.20;;;6.07;;
8074;SDS011;4080;42.676;23.372;2022-09-09T07:08:24;8.13;;;6.40;;
8074;SDS011;4080;42.676;23.372;2022-09-09T07:10:51;8.60;;;6.13;;
8074;SDS011;4080;42.676;23.372;2022-09-09T07:13:19;5.70;;;5.20;;
8074;SDS011;4080;42.676;23.372;2022-09-09T07:15:50;9.10;;;6.00;;
8074;SDS011;4080;42.676;23.372;2022-09-09T07:18:18;9.40;;;7.77;;
8074;SDS011;4080;42.676;23.372;2022-09-09T07:20:52;14.90;;;11.60;;
8074;SDS011;4080;42.676;23.372;2022-09-09T07:23:19;7.63;;;6.37;;
8074;SDS011;4080;42.676;23.372;2022-09-09T07:25:46;8.27;;;6.10;;
8074;SDS011;4080;42.676;23.372;2022-09-09T07:28:13;10.33;;;6.83;;
8074;SDS011;4080;42.676;23.372;2022-09-09T07:30:40;8.30;;;5.57;;
8074;SDS011;4080;42.676;23.372;2022-09-09T07:33:07;9.93;;;6.20;;
8074;SDS011;4080;42.676;23.372;2022-09-09T07:35:36;8.73;;;6.33;;
8074;SDS011;4080;42.676;23.372;2022-09-09T07:38:03;8.43;;;7.57;;
8074;SDS011;4080;42.676;23.372;2022-09-09T07:40:31;8.13;;;6.13;;
8074;SDS011;4080;42.676;23.372;2022-09-09T07:42:58;9.97;;;5.70;;
8074;SDS011;4080;42.676;23.372;2022-09-09T07:45:25;8.93;;;6.03;;
8074;SDS011;4080;42.676;23.372;2022-09-09T07:47:53;12.80;;;6.57;;
8074;SDS011;4080;42.676;23.372;2022-09-09T07:50:22;6.77;;;6.03;;
8074;SDS011;4080;42.676;23.372;2022-09-09T07:52:51;7.07;;;5.70;;
8074;SDS011;4080;42.676;23.372;2022-09-09T07:55:19;11.40;;;5.83;;
8074;SDS011;4080;42.676;23.372;2022-09-09T07:57:50;8.27;;;5.70;;
8074;SDS011;4080;42.676;23.372;2022-09-09T08:00:17;6.97;;;6.20;;
8074;SDS011;4080;42.676;23.372;2022-09-09T08:02:45;8.20;;;5.67;;
8074;SDS011;4080;42.676;23.372;2022-09-09T08:05:12;9.80;;;5.80;;
8074;SDS011;4080;42.676;23.372;2022-09-09T08:07:39;9.13;;;6.03;;
8074;SDS011;4080;42.676;23.372;2022-09-09T08:10:07;8.40;;;5.70;;
8074;SDS011;4080;42.676;23.372;2022-09-09T08:12:35;10.90;;;6.37;;
8074;SDS011;4080;42.676;23.372;2022-09-09T08:15:01;6.43;;;5.43;;
8074;SDS011;4080;42.676;23.372;2022-09-09T08:17:28;8.40;;;5.60;;
8074;SDS011;4080;42.676;23.372;2022-09-09T08:19:55;7.23;;;5.70;;
8074;SDS011;4080;42.676;23.372;2022-09-09T08:22:22;7.57;;;5.60;;
8074;SDS011;4080;42.676;23.372;2022-09-09T08:24:49;7.43;;;5.33;;
8074;SDS011;4080;42.676;23.372;2022-09-09T08:27:17;5.90;;;5.40;;
8074;SDS011;4080;42.676;23.372;2022-09-09T08:29:44;7.67;;;5.80;;
8074;SDS011;4080;42.676;23.372;2022-09-09T08:32:11;9.57;;;6.17;;
8074;SDS011;4080;42.676;23.372;2022-09-09T08:34:39;8.00;;;5.70;;
8074;SDS011;4080;42.676;23.372;2022-09-09T08:37:06;8.13;;;6.30;;
8074;SDS011;4080;42.676;23.372;2022-09-09T08:39:33;7.30;;;6.03;;
8074;SDS011;4080;42.676;23.372;2022-09-09T08:42:06;8.40;;;6.10;;
8074;SDS011;4080;42.676;23.372;2022-09-09T08:47:51;6.80;;;6.00;;
8074;SDS011;4080;42.676;23.372;2022-09-09T08:50:28;11.00;;;6.10;;
8074;SDS011;4080;42.676;23.372;2022-09-09T08:53:00;9.63;;;7.17;;
8074;SDS011;4080;42.676;23.372;2022-09-09T08:55:35;10.43;;;6.50;;
8074;SDS011;4080;42.676;23.372;2022-09-09T08:58:09;13.77;;;11.10;;
8074;SDS011;4080;42.676;23.372;2022-09-09T09:00:42;7.07;;;6.47;;
8074;SDS011;4080;42.676;23.372;2022-09-09T09:03:22;7.03;;;5.90;;
8074;SDS011;4080;42.676;23.372;2022-09-09T09:05:57;10.20;;;5.90;;
8074;SDS011;4080;42.676;23.372;2022-09-09T09:08:33;8.30;;;6.30;;
8074;SDS011;4080;42.676;23.372;2022-09-09T09:11:06;6.93;;;6.30;;
8074;SDS011;4080;42.676;23.372;2022-09-09T09:13:37;8.47;;;6.60;;
8074;SDS011;4080;42.676;23.372;2022-09-09T09:16:11;12.60;;;6.10;;
8074;SDS011;4080;42.676;23.372;2022-09-09T09:18:45;7.77;;;6.23;;
8074;SDS011;4080;42.676;23.372;2022-09-09T09:21:12;10.57;;;7.93;;
8074;SDS011;4080;42.676;23.372;2022-09-09T09:23:46;6.97;;;6.27;;
8074;SDS011;4080;42.676;23.372;2022-09-09T09:26:20;7.27;;;6.53;;
8074;SDS011;4080;42.676;23.372;2022-09-09T09:29:10;7.90;;;7.20;;
8074;SDS011;4080;42.676;23.372;2022-09-09T09:31:41;8.10;;;6.37;;
8074;SDS011;4080;42.676;23.372;2022-09-09T09:34:10;9.70;;;6.27;;
8074;SDS011;4080;42.676;23.372;2022-09-09T09:36:39;9.63;;;6.07;;
8074;SDS011;4080;42.676;23.372;2022-09-09T09:39:09;9.63;;;5.87;;
8074;SDS011;4080;42.676;23.372;2022-09-09T09:41:38;10.17;;;6.77;;
8074;SDS011;4080;42.676;23.372;2022-09-09T09:44:22;15.33;;;6.70;;
8074;SDS011;4080;42.676;23.372;2022-09-09T09:46:51;8.37;;;6.50;;
8074;SDS011;4080;42.676;23.372;2022-09-09T09:49:22;8.47;;;6.30;;
8074;SDS011;4080;42.676;23.372;2022-09-09T09:51:49;10.60;;;9.60;;
8074;SDS011;4080;42.676;23.372;2022-09-09T09:54:18;12.47;;;9.20;;
8074;SDS011;4080;42.676;23.372;2022-09-09T09:56:54;7.20;;;6.30;;
8074;SDS011;4080;42.676;23.372;2022-09-09T09:59:23;12.77;;;11.23;;
8074;SDS011;4080;42.676;23.372;2022-09-09T10:02:13;12.47;;;7.07;;
8074;SDS011;4080;42.676;23.372;2022-09-09T10:04:45;9.50;;;6.70;;
8074;SDS011;4080;42.676;23.372;2022-09-09T10:07:12;9.33;;;7.03;;
8074;SDS011;4080;42.676;23.372;2022-09-09T10:09:43;8.97;;;6.70;;
8074;SDS011;4080;42.676;23.372;2022-09-09T10:12:13;10.50;;;6.30;;
8074;SDS011;4080;42.676;23.372;2022-09-09T10:14:50;11.63;;;6.50;;
8074;SDS011;4080;42.676;23.372;2022-09-09T10:17:24;8.63;;;6.90;;
8074;SDS011;4080;42.676;23.372;2022-09-09T10:20:07;10.43;;;6.47;;
8074;SDS011;4080;42.676;23.372;2022-09-09T10:22:47;10.03;;;6.70;;
8074;SDS011;4080;42.676;23.372;2022-09-09T10:25:23;9.50;;;6.70;;
8074;SDS011;4080;42.676;23.372;2022-09-09T10:28:17;7.87;;;6.77;;
8074;SDS011;4080;42.676;23.372;2022-09-09T10:31:01;7.83;;;7.03;;
8074;SDS011;4080;42.676;23.372;2022-09-09T10:33:37;11.37;;;7.10;;
8074;SDS011;4080;42.676;23.372;2022-09-09T10:36:13;9.23;;;6.70;;
8074;SDS011;4080;42.676;23.372;2022-09-09T10:38:46;9.00;;;6.73;;
8074;SDS011;4080;42.676;23.372;2022-09-09T10:41:16;8.13;;;6.73;;
8074;SDS011;4080;42.676;23.372;2022-09-09T10:43:52;8.50;;;6.40;;
8074;SDS011;4080;42.676;23.372;2022-09-09T10:46:36;7.77;;;6.83;;
8074;SDS011;4080;42.676;23.372;2022-09-09T10:49:18;10.77;;;7.37;;
8074;SDS011;4080;42.676;23.372;2022-09-09T10:51:57;12.37;;;6.80;;
8074;SDS011;4080;42.676;23.372;2022-09-09T10:54:36;8.57;;;6.50;;
8074;SDS011;4080;42.676;23.372;2022-09-09T10:57:15;9.67;;;6.93;;
8074;SDS011;4080;42.676;23.372;2022-09-09T10:59:48;12.13;;;6.63;;
8074;SDS011;4080;42.676;23.372;2022-09-09T11:02:21;9.00;;;7.07;;
8074;SDS011;4080;42.676;23.372;2022-09-09T11:04:54;9.33;;;7.10;;
8074;SDS011;4080;42.676;23.372;2022-09-09T11:07:26;11.87;;;7.00;;
8074;SDS011;4080;42.676;23.372;2022-09-09T11:10:01;9.47;;;7.90;;
8074;SDS011;4080;42.676;23.372;2022-09-09T11:12:33;11.13;;;7.60;;
8074;SDS011;4080;42.676;23.372;2022-09-09T11:15:04;8.77;;;7.97;;
8074;SDS011;4080;42.676;23.372;2022-09-09T11:17:40;11.13;;;8.10;;
8074;SDS011;4080;42.676;23.372;2022-09-09T11:20:12;10.03;;;8.37;;
8074;SDS011;4080;42.676;23.372;2022-09-09T11:22:42;11.37;;;8.33;;
8074;SDS011;4080;42.676;23.372;2022-09-09T11:25:15;9.90;;;8.90;;
8074;SDS011;4080;42.676;23.372;2022-09-09T11:27:49;14.33;;;8.47;;
8074;SDS011;4080;42.676;23.372;2022-09-09T11:30:32;11.13;;;8.10;;
8074;SDS011;4080;42.676;23.372;2022-09-09T11:33:15;9.93;;;8.23;;
8074;SDS011;4080;42.676;23.372;2022-09-09T11:36:02;11.23;;;9.47;;
8074;SDS011;4080;42.676;23.372;2022-09-09T11:38:44;12.87;;;9.13;;
8074;SDS011;4080;42.676;23.372;2022-09-09T11:41:12;10.47;;;9.37;;
8074;SDS011;4080;42.676;23.372;2022-09-09T11:43:42;11.63;;;8.57;;
8074;SDS011;4080;42.676;23.372;2022-09-09T11:46:10;13.87;;;9.20;;
8074;SDS011;4080;42.676;23.372;2022-09-09T11:48:42;20.47;;;17.77;;
8074;SDS011;4080;42.676;23.372;2022-09-09T11:51:11;15.47;;;10.07;;
8074;SDS011;4080;42.676;23.372;2022-09-09T11:53:48;13.93;;;8.60;;
8074;SDS011;4080;42.676;23.372;2022-09-09T11:56:24;11.23;;;8.83;;
8074;SDS011;4080;42.676;23.372;2022-09-09T11:58:54;13.80;;;9.50;;
8074;SDS011;4080;42.676;23.372;2022-09-09T12:01:34;11.10;;;8.50;;
8074;SDS011;4080;42.676;23.372;2022-09-09T12:04:15;14.80;;;9.03;;
8074;SDS011;4080;42.676;23.372;2022-09-09T12:06:58;14.67;;;9.43;;
8074;SDS011;4080;42.676;23.372;2022-09-09T12:09:32;11.50;;;9.07;;
8074;SDS011;4080;42.676;23.372;2022-09-09T12:15:17;14.37;;;9.10;;
8074;SDS011;4080;42.676;23.372;2022-09-09T12:17:47;14.70;;;9.13;;
8074;SDS011;4080;42.676;23.372;2022-09-09T12:20:18;12.90;;;9.17;;
8074;SDS011;4080;42.676;23.372;2022-09-09T12:25:57;16.10;;;9.53;;
8074;SDS011;4080;42.676;23.372;2022-09-09T12:28:36;15.37;;;9.20;;
8074;SDS011;4080;42.676;23.372;2022-09-09T12:31:10;10.67;;;9.23;;
8074;SDS011;4080;42.676;23.372;2022-09-09T12:33:43;14.03;;;8.90;;
8074;SDS011;4080;42.676;23.372;2022-09-09T12:36:14;11.63;;;8.93;;
8074;SDS011;4080;42.676;23.372;2022-09-09T12:38:44;17.40;;;9.03;;
8074;SDS011;4080;42.676;23.372;2022-09-09T12:41:21;23.47;;;18.33;;
8074;SDS011;4080;42.676;23.372;2022-09-09T12:43:49;14.10;;;9.33;;
8074;SDS011;4080;42.676;23.372;2022-09-09T12:46:20;12.47;;;9.53;;
8074;SDS011;4080;42.676;23.372;2022-09-09T12:48:56;17.70;;;8.90;;
8074;SDS011;4080;42.676;23.372;2022-09-09T12:51:26;13.97;;;9.70;;
8074;SDS011;4080;42.676;23.372;2022-09-09T12:53:55;15.77;;;9.57;;
8074;SDS011;4080;42.676;23.372;2022-09-09T12:56:23;14.47;;;9.37;;
8074;SDS011;4080;42.676;23.372;2022-09-09T12:58:53;18.73;;;9.20;;
8074;SDS011;4080;42.676;23.372;2022-09-09T13:01:24;13.37;;;9.30;;
8074;SDS011;4080;42.676;23.372;2022-09-09T13:03:53;13.67;;;9.20;;
8074;SDS011;4080;42.676;23.372;2022-09-09T13:06:21;11.07;;;9.13;;
8074;SDS011;4080;42.676;23.372;2022-09-09T13:08:50;11.90;;;9.27;;
8074;SDS011;4080;42.676;23.372;2022-09-09T13:11:19;12.43;;;9.60;;
8074;SDS011;4080;42.676;23.372;2022-09-09T13:13:51;12.60;;;9.27;;
8074;SDS011;4080;42.676;23.372;2022-09-09T13:16:22;17.23;;;9.47;;
8074;SDS011;4080;42.676;23.372;2022-09-09T13:18:52;11.50;;;9.17;;
8074;SDS011;4080;42.676;23.372;2022-09-09T13:21:30;13.60;;;9.70;;
8074;SDS011;4080;42.676;23.372;2022-09-09T13:23:59;10.47;;;9.33;;
8074;SDS011;4080;42.676;23.372;2022-09-09T13:26:28;11.37;;;8.77;;
8074;SDS011;4080;42.676;23.372;2022-09-09T13:29:07;14.00;;;9.47;;
8074;SDS011;4080;42.676;23.372;2022-09-09T13:31:42;14.00;;;9.70;;
8074;SDS011;4080;42.676;23.372;2022-09-09T13:34:13;10.80;;;8.80;;
8074;SDS011;4080;42.676;23.372;2022-09-09T13:36:41;13.80;;;9.33;;
8074;SDS011;4080;42.676;23.372;2022-09-09T13:39:15;14.60;;;9.73;;
8074;SDS011;4080;42.676;23.372;2022-09-09T13:41:44;11.80;;;8.87;;
8074;SDS011;4080;42.676;23.372;2022-09-09T13:44:17;16.20;;;9.73;;
8074;SDS011;4080;42.676;23.372;2022-09-09T13:46:58;17.47;;;9.37;;
8074;SDS011;4080;42.676;23.372;2022-09-09T13:49:27;15.77;;;9.83;;
8074;SDS011;4080;42.676;23.372;2022-09-09T13:52:03;11.37;;;8.73;;
8074;SDS011;4080;42.676;23.372;2022-09-09T13:54:34;19.27;;;9.70;;
8074;SDS011;4080;42.676;23.372;2022-09-09T13:57:01;12.93;;;9.77;;
8074;SDS011;4080;42.676;23.372;2022-09-09T13:59:29;11.30;;;9.90;;
8074;SDS011;4080;42.676;23.372;2022-09-09T14:01:56;14.20;;;10.00;;
8074;SDS011;4080;42.676;23.372;2022-09-09T14:04:23;14.33;;;9.60;;
8074;SDS011;4080;42.676;23.372;2022-09-09T14:06:50;12.13;;;9.20;;
8074;SDS011;4080;42.676;23.372;2022-09-09T14:09:18;13.13;;;9.70;;
8074;SDS011;4080;42.676;23.372;2022-09-09T14:11:46;13.07;;;8.70;;
8074;SDS011;4080;42.676;23.372;2022-09-09T14:14:13;11.70;;;9.07;;
8074;SDS011;4080;42.676;23.372;2022-09-09T14:16:40;10.83;;;9.83;;
8074;SDS011;4080;42.676;23.372;2022-09-09T14:19:07;13.13;;;9.00;;
8074;SDS011;4080;42.676;23.372;2022-09-09T14:21:34;11.80;;;8.90;;
8074;SDS011;4080;42.676;23.372;2022-09-09T14:24:01;16.17;;;9.00;;
8074;SDS011;4080;42.676;23.372;2022-09-09T14:26:28;14.97;;;9.37;;
8074;SDS011;4080;42.676;23.372;2022-09-09T14:28:56;11.93;;;8.90;;
8074;SDS011;4080;42.676;23.372;2022-09-09T14:31:24;15.17;;;9.23;;
8074;SDS011;4080;42.676;23.372;2022-09-09T14:33:51;14.40;;;8.60;;
8074;SDS011;4080;42.676;23.372;2022-09-09T14:36:18;14.50;;;8.80;;
8074;SDS011;4080;42.676;23.372;2022-09-09T14:38:46;14.97;;;7.90;;
8074;SDS011;4080;42.676;23.372;2022-09-09T14:41:14;12.80;;;8.93;;
8074;SDS011;4080;42.676;23.372;2022-09-09T14:43:42;17.50;;;8.37;;
8074;SDS011;4080;42.676;23.372;2022-09-09T14:46:12;11.33;;;8.10;;
8074;SDS011;4080;42.676;23.372;2022-09-09T14:48:40;11.23;;;8.60;;
8074;SDS011;4080;42.676;23.372;2022-09-09T14:51:07;14.63;;;8.50;;
8074;SDS011;4080;42.676;23.372;2022-09-09T14:53:35;11.43;;;8.63;;
8074;SDS011;4080;42.676;23.372;2022-09-09T14:56:03;11.37;;;8.50;;
8074;SDS011;4080;42.676;23.372;2022-09-09T14:58:31;15.30;;;8.33;;
8074;SDS011;4080;42.676;23.372;2022-09-09T15:01:01;10.83;;;8.23;;
8074;SDS011;4080;42.676;23.372;2022-09-09T15:03:31;15.23;;;8.67;;
8074;SDS011;4080;42.676;23.372;2022-09-09T15:05:58;17.40;;;8.23;;
8074;SDS011;4080;42.676;23.372;2022-09-09T15:08:24;13.03;;;8.57;;
8074;SDS011;4080;42.676;23.372;2022-09-09T15:10:58;13.63;;;8.30;;
8074;SDS011;4080;42.676;23.372;2022-09-09T15:13:26;11.57;;;8.33;;
8074;SDS011;4080;42.676;23.372;2022-09-09T15:15:53;15.03;;;8.20;;
8074;SDS011;4080;42.676;23.372;2022-09-09T15:18:20;11.53;;;8.77;;